createdAt,value
2022-09-17T00:01:35.516Z,1.40
2022-09-17T00:04:24.171Z,1.20
2022-09-17T00:10:06.099Z,1.30
2022-09-17T00:15:56.282Z,1.07
2022-09-17T00:21:32.211Z,1.20
2022-09-17T00:24:23.938Z,1.00
2022-09-17T00:27:12.184Z,1.20
2022-09-17T00:30:01.319Z,1.33
2022-09-17T00:32:49.772Z,1.37
2022-09-17T00:38:28.510Z,1.17
2022-09-17T00:43:57.736Z,1.30
2022-09-17T00:46:47.852Z,1.20
2022-09-17T00:49:37.155Z,1.37
2022-09-17T00:55:19.657Z,1.17
2022-09-17T01:01:15.328Z,1.30
2022-09-17T01:06:52.009Z,1.20
2022-09-17T01:12:54.557Z,1.10
2022-09-17T01:18:42.073Z,1.40
2022-09-17T01:21:44.784Z,1.50
2022-09-17T01:28:12.997Z,1.10
2022-09-17T01:34:03.829Z,1.13
2022-09-17T01:39:41.656Z,1.20
2022-09-17T01:45:22.287Z,1.40
2022-09-17T01:51:02.672Z,1.30
2022-09-17T01:56:40.478Z,1.47
2022-09-17T02:02:28.416Z,1.40
2022-09-17T02:05:20.585Z,1.40
2022-09-17T02:08:23.361Z,1.10
2022-09-17T02:17:15.291Z,1.67
2022-09-17T02:22:53.844Z,1.27
2022-09-17T02:28:39.178Z,1.47
2022-09-17T02:31:30.363Z,1.40
2022-09-17T02:37:08.733Z,1.50
2022-09-17T02:43:13.053Z,1.40
2022-09-17T02:46:08.220Z,1.53
2022-09-17T02:52:09.033Z,1.90
2022-09-17T02:57:53.007Z,1.90
2022-09-17T03:00:41.251Z,1.50
2022-09-17T03:06:22.383Z,1.47
2022-09-17T03:09:15.968Z,2.20
2022-09-17T03:14:52.967Z,1.50
2022-09-17T03:20:28.220Z,1.90
2022-09-17T03:23:27.868Z,1.70
2022-09-17T03:26:21.442Z,1.70
2022-09-17T03:29:11.465Z,1.90
2022-09-17T03:34:46.727Z,1.67
2022-09-17T03:37:35.011Z,1.33
2022-09-17T03:43:12.832Z,1.40
2022-09-17T03:48:52.275Z,1.50
2022-09-17T03:54:27.202Z,1.70
2022-09-17T03:59:58.936Z,1.43
2022-09-17T04:05:35.471Z,1.30
2022-09-17T04:08:24.246Z,1.23
2022-09-17T04:14:06.043Z,1.00
2022-09-17T04:19:38.977Z,1.20
2022-09-17T04:25:16.964Z,1.10
2022-09-17T04:28:05.668Z,1.07
2022-09-17T04:33:34.827Z,1.33
2022-09-17T04:39:11.248Z,1.20
2022-09-17T04:44:39.434Z,1.20
2022-09-17T04:47:28.130Z,1.00
2022-09-17T04:53:01.829Z,1.73
2022-09-17T04:55:50.379Z,1.50
2022-09-17T05:01:25.832Z,1.30
2022-09-17T05:06:57.284Z,1.30
2022-09-17T05:12:34.644Z,1.53
2022-09-17T05:18:08.332Z,1.17
2022-09-17T05:23:45.433Z,1.60
2022-09-17T05:29:21.885Z,1.10
2022-09-17T05:34:57.457Z,1.20
2022-09-17T05:40:34.851Z,1.30
2022-09-17T05:43:24.086Z,1.33
2022-09-17T05:46:14.186Z,1.20
2022-09-17T05:51:48.170Z,1.10
2022-09-17T05:57:24.020Z,0.93
2022-09-17T06:00:16.926Z,1.20
2022-09-17T06:03:05.292Z,1.20
2022-09-17T06:05:58.074Z,1.03
2022-09-17T06:11:33.789Z,0.90
2022-09-17T06:14:22.366Z,1.00
2022-09-17T06:19:59.073Z,1.00
2022-09-17T06:22:51.508Z,1.17
2022-09-17T06:28:26.689Z,0.70
2022-09-17T06:34:02.859Z,0.97
2022-09-17T06:36:52.557Z,0.67
2022-09-17T06:42:22.379Z,1.27
2022-09-17T06:45:16.410Z,0.90
2022-09-17T06:48:06.536Z,1.00
2022-09-17T06:53:41.301Z,1.00
2022-09-17T06:59:17.134Z,0.97
2022-09-17T07:04:55.062Z,0.97
2022-09-17T07:10:45.394Z,0.93
2022-09-17T07:16:34.859Z,1.07
2022-09-17T07:22:08.765Z,0.80
2022-09-17T07:27:38.793Z,0.70
2022-09-17T07:33:21.482Z,0.70
2022-09-17T07:38:52.962Z,1.00
2022-09-17T07:44:28.714Z,0.90
2022-09-17T07:50:17.953Z,0.70
2022-09-17T07:55:59.969Z,1.00
2022-09-17T08:01:34.584Z,0.87
2022-09-17T08:07:05.989Z,1.17
2022-09-17T08:12:44.848Z,0.73
2022-09-17T08:18:29.113Z,0.93
2022-09-17T08:26:55.619Z,1.00
2022-09-17T08:32:36.529Z,0.60
2022-09-17T08:35:26.097Z,0.80
2022-09-17T08:41:08.703Z,0.67
2022-09-17T08:49:51.813Z,0.90
2022-09-17T08:52:59.517Z,0.87
2022-09-17T08:59:10.106Z,0.70
2022-09-17T09:05:04.645Z,0.90
2022-09-17T09:10:46.674Z,0.90
2022-09-17T09:16:30.653Z,0.80
2022-09-17T09:27:38.582Z,0.80
2022-09-17T09:30:27.417Z,0.70
2022-09-17T09:36:06.919Z,0.57
2022-09-17T09:38:57.564Z,0.60
2022-09-17T09:47:32.235Z,0.50
2022-09-17T09:50:54.750Z,0.80
2022-09-17T09:56:22.758Z,0.50
2022-09-17T10:02:15.624Z,0.60
2022-09-17T10:07:51.479Z,0.60
2022-09-17T10:13:30.713Z,0.60
2022-09-17T10:16:21.428Z,0.60
2022-09-17T10:24:58.240Z,0.50
2022-09-17T10:30:34.604Z,0.63
2022-09-17T10:36:06.149Z,0.60
2022-09-17T10:41:54.281Z,0.50
2022-09-17T10:47:44.391Z,0.60
2022-09-17T10:50:37.553Z,0.73
2022-09-17T10:56:32.432Z,0.63
2022-09-17T11:02:34.443Z,0.67
2022-09-17T11:08:49.690Z,0.70
2022-09-17T11:14:50.725Z,0.73
2022-09-17T11:21:00.288Z,0.60
2022-09-17T11:26:47.611Z,0.80
2022-09-17T11:32:36.106Z,0.50
2022-09-17T11:38:15.880Z,0.60
2022-09-17T11:43:56.864Z,0.60
2022-09-17T11:46:47.912Z,0.43
2022-09-17T11:52:19.998Z,0.47
2022-09-17T11:58:03.148Z,0.40
2022-09-17T12:01:08.395Z,0.50
2022-09-17T12:06:50.591Z,0.67
2022-09-17T12:09:40.577Z,0.40
2022-09-17T12:12:50.021Z,0.70
2022-09-17T12:18:33.392Z,0.50
2022-09-17T12:24:00.205Z,0.67
2022-09-17T12:26:57.116Z,0.50
2022-09-17T12:30:22.805Z,0.40
2022-09-17T12:36:40.179Z,0.80
2022-09-17T12:43:06.193Z,0.60
2022-09-17T12:49:08.918Z,0.63
2022-09-17T12:51:58.407Z,0.60
2022-09-17T12:58:20.314Z,0.70
2022-09-17T13:03:56.737Z,0.60
2022-09-17T13:10:42.013Z,0.60
2022-09-17T13:16:23.705Z,0.50
2022-09-17T13:21:58.557Z,0.43
2022-09-17T13:30:24.555Z,0.73
2022-09-17T13:35:54.382Z,0.70
2022-09-17T13:41:33.726Z,0.77
2022-09-17T13:47:28.789Z,0.53
2022-09-17T13:53:26.751Z,0.97
2022-09-17T13:59:16.076Z,0.70
2022-09-17T14:05:39.551Z,0.60
2022-09-17T14:11:38.568Z,1.30
2022-09-17T14:17:53.350Z,0.60
2022-09-17T14:23:28.059Z,0.77
2022-09-17T14:29:10.457Z,0.67
2022-09-17T14:34:48.207Z,0.60
2022-09-17T14:37:36.814Z,0.90
2022-09-17T14:43:21.202Z,0.60
2022-09-17T14:48:56.703Z,0.80
2022-09-17T14:51:45.315Z,1.10
2022-09-17T14:54:36.478Z,0.90
2022-09-17T15:00:08.875Z,0.80
2022-09-17T15:02:57.918Z,1.17
2022-09-17T15:08:30.084Z,0.77
2022-09-17T15:11:18.650Z,0.83
2022-09-17T15:14:08.271Z,0.80
2022-09-17T15:19:43.136Z,1.27
2022-09-17T15:25:25.377Z,1.40
2022-09-17T15:31:08.322Z,0.90
2022-09-17T15:33:56.799Z,0.80
2022-09-17T15:37:05.071Z,0.80
2022-09-17T15:39:55.931Z,1.20
2022-09-17T15:45:32.104Z,1.07
2022-09-17T15:48:27.957Z,1.30
2022-09-17T15:54:05.401Z,1.00
2022-09-17T15:59:42.231Z,0.97
2022-09-17T16:05:49.322Z,1.80
2022-09-17T16:08:39.218Z,0.90
2022-09-17T16:14:15.307Z,0.90
2022-09-17T16:17:22.253Z,0.60
2022-09-17T16:20:17.720Z,0.97
2022-09-17T16:23:07.268Z,0.90
2022-09-17T16:28:43.235Z,1.10
2022-09-17T16:34:13.236Z,0.90
2022-09-17T16:37:02.184Z,0.87
2022-09-17T16:42:33.453Z,1.20
2022-09-17T16:45:24.393Z,1.40
2022-09-17T16:50:57.702Z,1.00
2022-09-17T16:56:36.295Z,1.00
2022-09-17T17:02:10.447Z,0.57
2022-09-17T17:07:46.238Z,1.13
2022-09-17T17:10:35.115Z,1.00
2022-09-17T17:13:23.440Z,0.87
2022-09-17T17:16:13.190Z,0.77
2022-09-17T17:21:57.884Z,1.00
2022-09-17T17:27:30.886Z,0.93
2022-09-17T17:30:20.155Z,1.07
2022-09-17T17:35:56.495Z,1.00
2022-09-17T17:41:22.845Z,0.70
2022-09-17T17:44:12.431Z,1.10
2022-09-17T17:47:00.629Z,0.90
2022-09-17T17:49:49.161Z,1.00
2022-09-17T17:52:40.365Z,0.83
2022-09-17T17:55:29.564Z,0.90
2022-09-17T17:58:17.980Z,0.70
2022-09-17T18:03:56.074Z,1.00
2022-09-17T18:06:44.439Z,1.30
2022-09-17T18:09:33.491Z,1.13
2022-09-17T18:15:13.061Z,0.90
2022-09-17T18:18:02.099Z,1.27
2022-09-17T18:20:51.093Z,1.00
2022-09-17T18:26:22.963Z,1.00
2022-09-17T18:31:57.976Z,1.30
2022-09-17T18:34:47.024Z,1.57
2022-09-17T18:37:35.249Z,3.53
2022-09-17T18:40:30.953Z,1.90
2022-09-17T18:43:19.172Z,2.00
2022-09-17T18:46:07.910Z,1.50
2022-09-17T18:48:56.661Z,1.20
2022-09-17T18:54:32.919Z,1.20
2022-09-17T19:00:14.751Z,0.93
2022-09-17T19:03:03.185Z,0.83
2022-09-17T19:08:40.147Z,0.87
2022-09-17T19:14:16.102Z,1.07
2022-09-17T19:19:53.102Z,1.10
2022-09-17T19:22:41.306Z,0.90
2022-09-17T19:25:29.601Z,0.90
2022-09-17T19:31:20.459Z,1.47
2022-09-17T19:37:00.736Z,1.13
2022-09-17T19:42:37.577Z,1.10
2022-09-17T19:48:28.116Z,1.20
2022-09-17T19:56:53.847Z,1.40
2022-09-17T20:05:19.839Z,1.00
2022-09-17T20:08:08.061Z,1.30
2022-09-17T20:10:56.902Z,1.33
2022-09-17T20:13:45.016Z,1.47
2022-09-17T20:19:20.974Z,1.30
2022-09-17T20:22:09.324Z,1.20
2022-09-17T20:27:47.219Z,1.13
2022-09-17T20:33:24.501Z,1.40
2022-09-17T20:36:15.924Z,1.70
2022-09-17T20:41:44.637Z,1.33
2022-09-17T20:47:37.552Z,1.20
2022-09-17T20:53:37.653Z,1.13
2022-09-17T20:59:30.411Z,1.60
2022-09-17T21:05:00.705Z,1.03
2022-09-17T21:10:30.481Z,1.20
2022-09-17T21:16:05.719Z,0.93
2022-09-17T21:18:58.905Z,1.10
2022-09-17T21:21:48.154Z,1.30
2022-09-17T21:24:36.633Z,1.30
2022-09-17T21:33:08.578Z,1.50
2022-09-17T21:38:56.383Z,1.10
2022-09-17T21:47:45.324Z,1.37
2022-09-17T21:54:05.453Z,1.00
2022-09-17T21:56:53.551Z,0.90
2022-09-17T21:59:41.684Z,1.27
2022-09-17T22:02:32.145Z,1.40
2022-09-17T22:08:19.754Z,1.40
2022-09-17T22:13:55.299Z,0.90
2022-09-17T22:19:26.111Z,0.97
2022-09-17T22:25:01.558Z,0.90
2022-09-17T22:30:38.298Z,0.90
2022-09-17T22:33:32.601Z,0.73
2022-09-17T22:36:22.385Z,0.80
2022-09-17T22:42:28.694Z,1.20
2022-09-17T22:45:19.233Z,0.70
2022-09-17T22:50:54.300Z,0.80
2022-09-17T22:53:43.867Z,0.90
2022-09-17T22:59:18.814Z,0.70
2022-09-17T23:05:05.287Z,0.80
2022-09-17T23:10:43.530Z,0.77
2022-09-17T23:16:22.964Z,0.80
2022-09-17T23:19:11.977Z,0.80
2022-09-17T23:28:16.541Z,1.03
2022-09-17T23:44:19.684Z,1.50
2022-09-17T23:47:08.310Z,1.07
2022-09-17T23:49:56.938Z,1.60
2022-09-17T23:55:38.322Z,0.70
